Date,TemperatureHighF,TemperatureAvgF,TemperatureLowF,DewpointHighF,DewpointAvgF,DewpointLowF,HumidityHigh,HumidityAvg,HumidityLow,PressureMaxIn,PressureMinIn,WindSpeedMaxMPH,WindSpeedAvgMPH,GustSpeedMaxMPH,PrecipitationSumIn
2014-1-1,65.3,45.7,30.5,36.5,32.2,26.1,88,64,31,30.23,30.13,12,2,12,0.00
2014-1-2,69.4,48.6,32.5,39.9,35.1,28.6,88,63,32,30.20,30.07,7,2,7,0.00
2014-1-3,70.5,49.8,36.0,41.5,37.0,31.6,88,65,33,30.09,29.95,10,2,10,0.00
2014-1-4,73.8,49.6,32.7,42.5,28.7,7.5,92,55,9,30.09,29.98,16,3,16,0.00
2014-1-5,72.7,57.1,35.8,25.4,9.2,-0.6,64,18,6,30.22,30.08,18,5,18,0.00
2014-1-6,64.1,47.4,35.8,32.7,25.6,17.6,60,44,24,30.30,30.17,9,1,9,0.00
2014-1-7,64.3,47.1,36.9,37.9,31.6,27.3,83,57,28,30.23,30.12,9,2,9,0.00
2014-1-8,60.9,44.8,31.3,50.1,40.1,28.8,94,84,67,30.24,30.13,8,2,8,0.00
2014-1-9,67.1,48.4,37.0,50.7,40.4,34.9,95,77,35,30.26,30.17,10,2,10,0.00
2014-1-10,65.4,48.6,33.9,48.8,41.1,31.6,94,77,51,30.32,30.17,9,2,9,0.00
2014-1-11,55.5,46.1,38.5,52.6,43.6,35.8,94,91,78,30.29,30.14,10,2,10,0.00
2014-1-12,63.7,50.6,36.7,45.3,36.2,30.8,95,64,30,30.41,30.27,17,6,17,0.01
2014-1-13,71.7,54.8,36.7,42.2,36.8,31.0,87,54,26,30.45,30.34,15,4,15,0.00
2014-1-14,70.3,45.1,27.0,40.8,33.2,24.6,93,68,30,30.47,30.33,10,2,10,0.00
2014-1-15,77.8,48.3,28.9,39.6,32.0,25.8,90,60,20,30.36,30.20,10,2,10,0.00
2014-1-16,80.8,49.9,27.4,35.6,29.4,16.1,87,52,11,30.24,30.11,12,2,12,0.00
2014-1-17,78.0,50.8,31.4,35.6,28.5,22.6,76,48,15,30.21,30.10,8,1,8,0.00
2014-1-18,74.5,49.8,31.3,33.9,28.8,23.6,78,49,20,30.18,30.06,9,2,9,0.00
2014-1-19,76.3,50.1,33.4,33.2,29.1,25.8,75,49,18,30.15,30.05,6,2,6,0.00
2014-1-20,72.3,48.4,30.5,35.5,30.0,23.7,81,53,23,30.25,30.12,9,2,9,0.00
2014-1-21,73.9,48.7,30.3,33.5,28.8,23.8,82,51,21,30.28,30.16,9,2,9,0.00
2014-1-22,72.0,49.4,33.5,31.2,27.7,24.1,71,47,20,30.19,29.92,10,2,10,0.00
2014-1-23,73.1,54.9,31.4,31.4,25.3,20.0,79,38,14,30.03,29.86,24,7,24,0.00
2014-1-24,75.8,55.7,41.0,37.3,30.4,25.6,62,41,17,30.28,30.03,10,2,10,0.00
2014-1-25,75.5,55.3,38.7,36.7,33.0,27.3,66,46,22,30.28,30.12,9,2,9,0.00
2014-1-26,75.8,52.7,37.3,43.9,35.1,29.3,82,56,19,30.15,30.01,10,2,10,0.00
2014-1-27,62.4,48.9,35.5,49.2,42.4,31.2,94,79,55,30.20,30.07,8,2,8,0.00
2014-1-28,69.7,57.0,46.4,57.2,50.4,43.3,92,80,55,30.27,30.17,6,1,6,0.00
2014-1-29,63.4,57.0,52.1,57.9,53.5,48.8,94,88,75,30.19,29.99,12,2,12,0.02
2014-1-30,66.8,54.3,48.3,51.2,47.2,42.6,94,79,45,29.99,29.81,10,2,10,0.03
2014-1-31,65.7,50.3,38.2,44.8,33.3,16.8,93,59,16,30.09,29.90,20,4,20,0.00
2014-2-1,64.4,45.3,32.5,36.6,32.0,22.0,90,64,20,30.18,30.07,12,2,12,0.00
2014-2-2,44.9,40.6,33.2,41.4,37.0,28.0,92,87,80,30.07,29.90,10,2,10,0.42
2014-2-3,60.7,44.5,33.1,44.6,37.8,31.6,95,80,43,30.08,29.97,9,2,9,0.00
2014-2-4,57.5,42.8,32.1,40.7,35.7,30.3,94,78,49,30.17,30.07,8,2,8,0.00
2014-2-5,54.9,42.5,28.5,43.0,36.3,26.6,94,81,50,30.21,30.08,8,2,8,0.29
2014-2-6,50.5,46.7,43.5,48.2,44.8,41.8,94,93,88,30.08,29.93,6,1,6,0.56
2014-2-7,52.5,50.6,47.3,50.8,48.8,45.7,95,94,92,30.08,29.98,20,6,20,1.21
2014-2-8,57.6,54.6,51.6,55.9,52.9,49.5,95,94,94,30.14,30.02,15,5,15,2.37
2014-2-9,58.2,56.5,55.5,56.5,54.8,53.4,95,94,93,30.13,30.04,12,3,12,0.69
2014-2-10,67.3,57.2,51.0,57.4,53.9,48.9,95,89,69,30.29,30.09,7,1,7,0.01
2014-2-11,64.4,52.3,43.3,55.1,49.0,42.0,95,89,70,30.26,30.15,9,2,9,0.01
2014-2-12,61.2,52.1,46.3,53.2,49.0,44.5,95,90,75,30.28,30.18,6,1,6,0.00
2014-2-13,69.5,56.6,48.5,60.5,53.1,46.9,95,89,71,30.24,30.09,7,1,7,0.00
2014-2-14,65.8,57.7,53.2,57.9,53.5,51.1,95,87,67,30.17,30.05,10,2,10,0.00
2014-2-15,60.1,54.8,52.4,54.5,52.2,50.1,95,91,79,30.06,29.97,12,2,12,0.02
2014-2-16,69.2,54.7,41.8,52.9,44.6,32.7,94,73,29,30.22,30.02,12,2,12,0.00
2014-2-17,67.3,50.3,38.1,47.9,42.0,36.2,95,76,40,30.19,30.11,10,2,10,0.00
2014-2-18,65.7,53.0,42.7,51.5,46.0,40.3,93,79,51,30.21,30.07,12,2,12,0.00
2014-2-19,71.0,57.0,46.7,50.6,44.3,27.5,94,67,23,30.22,30.07,13,3,13,0.00
2014-2-20,71.5,54.9,43.0,45.4,41.5,35.0,87,64,33,30.22,30.10,12,3,12,0.00
2014-2-21,75.0,56.0,42.2,49.1,43.7,38.8,92,68,33,30.13,29.97,10,2,10,0.00
2014-2-22,74.6,55.8,40.7,49.3,44.9,38.8,94,71,33,30.03,29.90,9,2,9,0.00
2014-2-23,72.2,52.9,39.4,53.4,45.6,37.5,95,79,44,30.04,29.93,10,2,10,0.00
2014-2-24,77.5,56.0,41.0,51.7,44.6,39.4,95,71,30,30.01,29.89,9,2,9,0.00
2014-2-25,65.9,52.2,42.7,52.8,46.9,39.8,94,83,55,29.99,29.89,14,3,14,0.01
2014-2-26,58.4,53.6,49.0,54.7,51.0,46.2,93,91,82,29.97,29.65,17,3,17,1.73
2014-2-27,65.3,57.6,53.1,53.7,50.8,47.5,90,79,55,29.89,29.56,17,3,17,0.05
2014-2-28,61.1,55.1,50.5,55.6,50.9,46.3,93,86,59,29.56,29.37,22,5,22,1.09
2014-3-1,64.7,57.8,51.8,52.0,50.0,47.6,93,76,59,29.83,29.51,20,6,20,0.07
2014-3-2,61.1,54.2,49.0,56.4,51.0,46.9,93,89,75,30.17,29.83,9,2,9,0.06
2014-3-3,58.9,54.6,51.2,52.9,51.3,49.1,93,89,77,30.16,30.04,12,3,12,0.22
2014-3-4,66.4,57.8,51.8,56.6,53.3,50.1,94,86,67,30.14,30.05,8,2,8,0.03
2014-3-5,65.0,58.7,54.1,58.6,55.0,52.1,93,88,77,30.11,29.97,21,3,21,0.14
2014-3-6,68.7,58.0,49.3,56.2,51.3,46.5,94,80,49,30.20,30.02,12,3,12,0.00
2014-3-16,80.8,65.6,43.0,54.9,46.0,29.5,94,54,18,30.32,30.14,12,4,12,0.00
2014-3-17,71.8,56.7,43.2,48.8,39.7,26.3,92,59,23,30.20,29.97,18,4,18,0.00
2014-3-18,74.2,62.5,50.0,40.3,29.5,21.9,64,31,15,29.99,29.88,25,8,25,0.00
2014-3-19,78.6,57.3,38.4,44.2,38.9,33.8,85,55,22,30.09,29.97,10,2,10,0.00
2014-3-20,80.6,59.3,44.5,46.0,41.5,28.8,85,57,21,30.06,29.91,12,2,12,0.00
2014-3-21,71.5,53.0,38.9,54.5,44.8,36.6,93,76,47,30.00,29.90,12,3,12,0.00
2014-3-22,73.8,53.9,37.8,53.0,44.5,36.0,94,73,46,30.10,29.99,12,2,12,0.00
2014-3-23,76.3,55.8,38.1,53.1,45.4,36.3,94,71,39,30.17,30.05,10,2,10,0.00
2014-3-24,81.0,58.3,40.1,54.8,42.4,33.1,94,62,22,30.16,29.99,10,2,10,0.00
2014-3-25,64.1,50.5,37.7,55.4,44.7,34.1,91,81,65,30.04,29.85,14,2,14,0.05
2014-3-26,64.7,53.7,48.2,53.3,47.8,44.8,94,82,54,29.96,29.81,16,3,16,0.61
2014-3-27,62.6,54.0,46.1,51.7,48.3,44.2,94,82,59,30.14,29.96,10,2,10,0.01
2014-3-28,67.4,58.5,52.9,54.4,52.1,50.0,93,80,60,30.19,30.10,16,4,16,0.00
2014-3-29,57.9,55.3,47.5,54.2,51.7,44.7,93,88,80,30.11,29.99,14,4,14,1.04
2014-3-30,65.7,50.9,38.8,48.8,42.9,37.3,95,77,44,30.12,30.03,16,3,16,0.01
2014-3-31,55.3,46.5,41.5,47.8,43.6,39.3,94,90,70,30.07,29.83,16,3,16,0.79
2014-4-1,55.3,47.0,43.7,49.9,44.3,41.8,94,90,70,29.94,29.83,17,3,17,0.97
2014-4-2,66.5,51.9,44.0,49.7,44.1,41.4,94,77,42,30.10,29.89,12,3,12,0.01
2014-4-3,66.9,51.6,40.4,49.9,43.5,38.8,95,77,39,30.13,30.01,12,2,12,0.00
2014-4-4,58.2,50.8,46.3,51.8,47.6,44.1,94,89,74,30.06,29.99,9,2,9,0.27
2014-4-5,74.5,56.0,42.0,52.9,47.5,40.7,95,77,44,30.18,30.06,10,2,10,0.01
2014-4-6,80.8,62.3,44.2,55.4,49.3,42.3,94,68,31,30.24,30.07,13,3,13,0.00
2014-4-7,85.6,65.5,47.9,60.3,54.5,46.0,94,72,33,30.16,30.05,12,2,12,0.00
2014-4-8,86.8,67.9,51.3,61.9,55.2,46.8,93,69,26,30.11,29.99,10,2,10,0.00
2014-4-9,76.7,60.6,51.0,62.6,54.5,48.9,94,81,59,30.09,29.96,12,3,12,0.00
2014-4-10,82.8,62.2,47.9,58.2,51.7,45.6,94,73,38,30.03,29.86,10,2,10,0.00
2014-4-11,70.5,58.1,50.2,59.0,52.9,47.9,93,83,65,29.93,29.82,12,4,12,0.00
2014-4-12,70.7,57.9,51.9,56.4,50.4,47.1,89,77,57,29.93,29.82,13,3,13,0.00
2014-4-13,78.0,61.5,51.0,59.9,52.2,48.1,90,74,43,30.04,29.93,14,3,14,0.00
2014-4-14,75.7,59.1,46.1,60.7,52.2,44.2,94,80,54,30.12,30.01,15,3,15,0.00
2014-4-15,77.1,58.7,45.2,60.5,51.9,43.3,94,80,56,30.06,29.87,14,3,14,0.00
2014-4-16,82.0,63.4,46.6,58.8,51.5,44.7,94,70,38,29.93,29.78,12,2,12,0.00
2014-4-22,68.8,59.8,48.6,42.9,39.4,34.4,80,48,29,30.11,30.03,18,8,18,0.00
2014-4-23,75.3,58.1,41.2,48.5,41.8,36.4,85,57,30,30.14,30.05,15,5,15,0.00
2014-4-24,74.8,60.5,48.4,55.5,51.2,45.4,91,73,46,30.09,29.95,16,4,16,0.00
2014-4-25,58.4,53.7,45.9,53.1,49.6,43.8,93,86,78,29.96,29.77,13,3,13,0.53
2014-4-26,68.4,52.7,40.6,49.4,42.2,33.1,95,71,29,30.08,29.85,18,4,18,0.01
2014-4-27,73.0,57.5,48.9,54.7,48.1,43.6,93,73,37,30.12,30.02,13,4,13,0.03
2014-4-28,79.0,60.6,44.3,51.7,47.1,41.9,92,65,35,30.22,30.12,10,3,10,0.00
2014-4-29,89.3,71.0,49.6,50.0,44.0,37.6,79,44,17,30.19,30.03,17,6,17,0.00
2014-4-30,94.0,76.7,60.9,53.3,42.4,33.3,69,32,16,30.08,29.98,14,4,14,0.00
2014-5-1,96.2,71.0,51.3,56.1,47.8,36.6,85,51,16,30.08,30.03,14,3,14,0.00
2014-5-2,87.8,65.0,45.4,58.0,46.2,32.9,88,57,17,30.08,29.95,12,3,12,0.00
2014-5-3,78.0,61.1,50.6,53.9,49.9,46.2,92,70,41,30.02,29.92,14,4,14,0.00
2014-5-4,72.8,60.8,49.5,54.1,49.3,44.9,86,67,46,30.04,29.96,15,5,15,0.00
2014-5-5,74.2,59.9,47.4,49.7,46.5,41.6,90,63,39,30.02,29.89,18,5,18,0.00
2014-5-6,77.9,61.3,44.5,48.8,44.1,37.4,86,57,28,29.94,29.80,18,4,18,0.00
2014-5-7,75.1,59.0,42.8,54.2,47.8,40.4,93,69,42,29.98,29.87,15,4,15,0.00
2014-5-8,69.0,58.9,48.8,57.8,51.8,44.4,90,78,54,30.07,29.96,12,3,12,0.00
2014-5-9,76.5,62.7,53.0,55.1,51.1,43.8,93,69,38,30.13,30.04,15,4,15,0.00
2014-5-10,75.0,60.4,42.5,46.0,42.6,34.1,91,56,26,30.12,29.98,18,5,18,0.00
2014-5-11,82.5,67.6,49.6,44.2,36.8,17.6,76,36,10,30.13,29.97,22,7,22,0.00
2014-5-12,92.8,68.3,43.5,49.7,43.0,31.6,87,47,13,30.10,30.01,15,2,15,0.00
2014-5-13,98.8,73.2,49.3,50.8,42.4,29.8,77,40,10,30.13,30.04,14,3,14,0.00
2014-5-14,98.7,74.6,51.0,55.1,45.4,35.1,81,42,14,30.12,30.01,20,3,20,0.00
2014-5-15,96.5,72.5,48.1,49.1,42.5,31.9,80,40,11,30.09,30.00,12,3,12,0.00
2014-5-16,83.7,65.8,47.3,56.4,48.6,41.6,84,57,33,30.06,29.92,15,4,15,0.00
2014-5-17,79.5,63.3,49.3,56.2,51.2,43.3,92,67,44,29.97,29.87,15,4,15,0.00
2014-5-18,80.0,66.0,51.8,53.9,48.3,43.1,77,54,35,29.96,29.87,16,5,16,0.00
2014-5-19,75.7,61.7,51.8,51.3,48.4,43.3,83,63,35,29.94,29.86,20,5,20,0.00
2014-5-20,77.0,60.4,47.8,52.1,49.0,44.5,90,69,39,29.97,29.91,15,3,15,0.00
2014-5-21,79.3,63.7,49.5,59.9,54.0,47.0,92,73,45,29.97,29.85,16,4,16,0.00
2014-5-22,79.2,63.1,53.4,59.5,54.4,50.0,89,75,50,30.00,29.89,16,5,16,0.00
2014-5-23,78.5,63.1,50.4,60.9,55.0,47.9,92,76,54,30.02,29.88,15,4,15,0.00
2014-5-24,79.9,65.7,51.3,61.1,55.9,49.3,93,73,51,29.98,29.87,16,4,16,0.00
2014-5-25,88.7,70.1,49.6,61.5,53.5,44.4,93,60,33,29.96,29.84,14,3,14,0.00
2014-5-26,91.7,72.7,48.4,61.1,50.4,42.3,86,49,22,29.99,29.88,13,4,13,0.00
2014-5-27,86.0,67.1,47.9,54.0,48.8,40.1,90,56,25,30.02,29.90,14,3,14,0.00
2014-5-28,87.3,67.2,47.7,47.2,40.6,27.3,75,43,13,30.06,29.92,13,4,13,0.00
2014-5-29,88.8,69.5,50.0,52.3,42.2,28.4,78,43,13,29.95,29.84,12,4,12,0.00
2014-5-30,74.3,60.0,48.2,56.3,50.5,44.9,90,73,47,29.94,29.87,16,4,16,0.00
2014-5-31,80.2,62.4,47.3,57.8,52.3,44.5,92,72,44,29.98,29.87,14,4,14,0.00
2014-6-1,82.9,64.6,53.2,58.4,54.1,50.6,92,72,40,29.91,29.76,14,4,14,0.00
2014-6-2,72.3,59.6,52.1,56.5,52.2,48.8,90,78,55,29.90,29.81,17,5,17,0.00
2014-6-3,80.0,63.1,52.4,59.1,53.1,48.4,89,72,44,29.96,29.82,13,4,13,0.00
2014-6-4,58.4,54.9,53.8,53.8,52.0,51.0,91,90,85,29.90,29.87,4,2,4,0.00
2014-6-6,81.3,70.1,55.1,61.0,57.3,50.8,86,65,49,29.81,29.74,14,7,14,0.00
2014-6-7,85.5,65.2,50.6,63.1,55.2,48.1,92,73,44,29.85,29.73,13,4,13,0.00
2014-6-8,100.3,75.2,49.9,64.8,56.6,47.8,94,60,22,29.82,29.67,10,3,10,0.00
2014-6-9,101.5,75.5,55.1,65.6,59.3,52.3,92,62,22,29.75,29.62,15,4,15,0.00
2014-6-10,82.4,67.4,53.4,62.5,57.6,51.1,94,73,50,29.81,29.69,14,4,14,0.00
2014-6-11,78.8,64.7,54.4,59.3,54.8,49.9,86,72,48,29.88,29.80,15,4,15,0.00
2014-6-12,82.0,65.5,53.4,57.7,52.3,49.4,88,65,36,29.94,29.84,12,4,12,0.00
2014-6-13,86.7,66.5,44.5,56.0,50.2,42.3,93,61,27,29.97,29.86,13,3,13,0.00
2014-6-14,89.5,69.1,49.3,56.1,50.5,38.8,91,58,19,29.92,29.78,17,4,17,0.00
2014-6-15,76.3,63.2,48.2,57.6,52.6,45.4,92,70,50,29.80,29.73,18,4,18,0.00
2014-6-16,80.1,63.0,49.8,52.1,49.0,46.3,90,63,34,29.86,29.77,15,5,15,0.00
2014-6-17,87.6,65.6,43.9,50.3,42.9,28.5,92,52,14,29.94,29.85,14,3,14,0.00
2014-6-18,92.8,71.0,47.3,52.4,44.1,29.3,83,45,14,29.93,29.86,17,3,17,0.00
2014-6-19,84.3,68.2,46.5,58.5,53.2,41.9,89,62,38,29.98,29.91,16,4,16,0.00
2014-6-20,97.1,70.5,48.8,61.7,50.6,29.5,94,57,14,29.97,29.84,14,3,14,0.00
2014-6-21,83.2,65.8,53.8,57.2,52.2,44.9,85,63,33,29.90,29.81,16,4,16,0.00
2014-6-22,79.8,63.1,46.2,58.1,52.8,43.7,93,71,46,29.94,29.85,17,5,17,0.00
2014-6-23,83.8,67.0,53.1,60.7,55.5,49.7,90,69,44,29.94,29.84,16,4,16,0.00
2014-6-24,89.0,69.7,50.0,59.5,54.4,47.0,92,62,32,29.95,29.86,14,4,14,0.00
2014-6-25,85.5,67.9,53.8,61.8,56.8,50.7,91,70,42,29.94,29.89,17,4,17,0.00
2014-6-26,82.8,68.8,59.0,58.8,56.3,54.1,85,66,43,29.96,29.89,14,4,14,0.00
2014-6-27,88.3,69.1,54.9,63.2,58.1,52.3,93,71,40,29.96,29.86,15,4,15,0.00
2014-6-28,88.3,69.7,51.8,63.1,56.2,49.4,93,66,38,29.94,29.83,14,3,14,0.00
2014-6-29,98.3,74.1,51.0,62.9,56.4,47.9,91,59,28,29.94,29.78,13,3,13,0.00
2014-6-30,97.0,73.8,55.0,62.9,58.7,51.8,91,64,29,29.83,29.73,17,5,17,0.00
2014-7-1,79.0,66.0,55.5,62.0,57.0,52.3,91,74,54,29.84,29.76,17,5,17,0.00
2014-7-2,80.8,64.5,53.7,62.7,56.4,50.9,91,77,53,29.88,29.79,15,4,15,0.00
2014-7-3,81.1,66.6,57.4,61.6,57.4,54.1,90,74,50,29.93,29.83,15,4,15,0.00
2014-7-4,84.8,66.7,56.4,63.0,56.8,51.4,91,73,46,29.98,29.89,16,4,16,0.00
2014-7-5,89.5,66.8,49.1,62.7,54.2,46.4,93,68,35,30.08,29.95,16,4,16,0.00
2014-7-6,88.8,68.1,46.7,62.1,54.9,43.9,92,66,39,30.04,29.88,15,4,15,0.00
2014-7-7,81.8,67.2,55.3,61.3,57.2,52.2,90,72,47,29.92,29.81,13,4,13,0.00
2014-7-8,81.5,67.3,59.0,61.8,58.3,55.4,89,75,49,29.91,29.84,17,5,17,0.00
2014-7-9,81.2,65.2,53.2,62.7,57.0,50.8,93,77,51,29.97,29.83,16,4,16,0.00
2014-7-11,78.9,69.0,59.3,59.8,56.2,53.5,82,65,51,30.05,29.95,16,3,16,0.00
2014-7-12,85.0,67.1,53.4,62.7,56.5,50.5,91,71,45,30.08,29.96,14,4,14,0.00
2014-7-13,88.5,69.3,54.2,65.6,58.7,51.6,92,72,45,30.01,29.84,15,4,15,0.00
2014-7-14,91.9,70.2,54.7,64.4,58.9,52.4,93,70,37,29.92,29.84,20,4,20,0.00
2014-7-15,90.0,72.1,59.5,66.1,60.3,55.8,89,68,39,29.99,29.89,18,4,18,0.00
2014-7-16,78.5,69.3,63.1,62.9,59.9,57.5,85,73,56,30.01,29.92,14,4,14,0.00
2014-7-17,83.8,69.1,61.0,63.9,58.6,55.8,86,71,49,30.02,29.90,16,3,16,0.00
2014-7-18,83.0,68.8,59.9,63.3,57.7,54.4,85,69,48,30.02,29.89,16,4,16,0.00
2014-7-19,88.2,68.6,52.7,65.2,57.7,50.1,93,71,45,29.97,29.85,18,3,18,0.00
2014-7-20,74.5,65.1,57.5,60.2,57.6,54.6,91,78,59,29.97,29.90,12,3,12,0.00
2014-7-21,83.8,69.5,61.8,63.1,59.7,57.1,88,73,50,30.04,29.96,14,3,14,0.00
2014-7-22,84.9,68.4,55.8,63.3,58.6,52.9,92,73,43,30.09,30.00,17,4,17,0.00
2014-7-23,89.7,72.8,61.1,63.8,59.2,56.2,86,65,36,30.12,29.99,16,3,16,0.00
2014-7-24,98.5,74.3,52.3,65.6,56.8,49.4,93,60,27,30.02,29.79,16,2,16,0.00
2014-7-25,103.8,78.8,55.4,62.1,54.0,44.8,88,50,16,29.87,29.77,13,3,13,0.00
2014-7-26,94.7,73.4,55.4,62.2,58.7,52.6,92,65,26,29.93,29.84,17,5,17,0.00
2014-7-27,94.9,73.9,61.8,62.9,59.9,57.9,88,66,31,29.99,29.86,15,5,15,0.00
2014-7-28,84.8,69.8,56.0,63.6,58.3,53.1,91,69,48,30.02,29.96,14,4,14,0.00
2014-7-29,93.6,72.5,55.3,64.2,58.5,51.9,90,65,33,30.05,29.92,14,4,14,0.00
2014-7-30,90.0,70.6,56.6,65.9,59.9,53.7,91,71,44,30.00,29.88,14,4,14,0.00
2014-7-31,88.8,69.2,55.8,65.4,59.2,53.1,92,73,44,29.98,29.83,14,4,14,0.00
2014-8-1,91.3,71.3,53.7,65.9,59.9,51.4,94,71,42,29.89,29.81,14,4,14,0.00
2014-8-2,83.3,66.0,54.6,63.7,57.5,51.8,92,76,48,29.94,29.83,14,4,14,0.00
2014-8-3,78.3,64.1,56.5,62.2,56.7,53.0,90,78,57,29.97,29.86,16,4,16,0.00
2014-8-4,77.0,65.2,57.0,61.9,57.7,53.5,89,78,56,29.99,29.91,12,3,12,0.02
2014-8-5,71.4,65.4,59.5,64.8,61.1,56.9,92,86,78,30.06,29.97,7,2,7,0.06
2014-8-6,90.0,73.1,62.0,68.1,63.6,58.4,92,74,46,30.01,29.90,14,4,14,0.00
2014-8-7,81.9,66.7,57.0,64.4,59.2,54.4,92,78,54,29.96,29.83,16,4,16,0.00
2014-8-8,83.3,67.7,58.3,63.3,58.7,55.7,91,75,51,29.92,29.81,15,4,15,0.00
2014-8-9,76.2,63.5,53.2,60.7,56.1,50.6,93,78,58,29.94,29.86,17,4,17,0.00
2014-8-10,78.3,64.6,56.3,61.5,56.7,52.8,89,77,55,30.00,29.89,15,4,15,0.00
2014-8-11,86.9,65.8,51.0,63.2,56.7,48.6,94,76,43,29.97,29.85,16,4,16,0.00
2014-8-12,83.0,65.2,50.1,60.6,55.6,47.6,93,73,46,29.98,29.87,12,3,12,0.00
2014-8-13,87.5,68.2,55.4,62.0,56.7,51.6,91,70,42,29.99,29.87,13,3,13,0.00
2014-8-14,83.5,66.8,52.8,62.6,57.3,50.4,93,74,47,29.96,29.84,17,4,17,0.00
2014-8-15,89.3,69.5,55.6,63.3,58.2,53.0,91,71,37,30.00,29.88,12,4,12,0.00
2014-8-16,90.7,67.4,49.9,62.0,56.0,47.8,93,70,35,30.05,29.91,16,3,16,0.00
2014-8-17,85.3,65.2,51.8,63.8,55.9,48.8,93,75,47,30.04,29.87,14,4,14,0.00
2014-8-18,78.4,63.9,54.8,62.9,57.2,52.1,92,80,58,29.90,29.76,16,4,16,0.00
2014-8-19,78.0,65.0,58.2,63.0,57.8,54.8,89,79,58,29.87,29.77,15,4,15,0.00
2014-8-20,73.8,65.1,58.9,61.4,58.2,55.6,90,79,64,29.93,29.84,13,3,13,0.00
2014-8-21,88.0,70.5,59.7,64.1,59.8,56.3,89,71,42,29.96,29.85,13,3,13,0.00
2014-8-22,81.6,66.5,57.9,62.9,58.2,55.0,91,76,51,29.93,29.82,15,4,15,0.00
2014-8-23,82.9,66.9,57.8,61.8,57.5,54.6,90,74,43,29.96,29.82,15,4,15,0.00
2014-8-24,88.4,67.5,53.1,61.7,55.6,50.5,92,69,35,29.92,29.76,12,2,12,0.00
2014-8-25,77.2,65.1,54.3,60.4,56.3,50.8,90,74,55,29.94,29.82,14,3,14,0.00
2014-8-26,86.2,68.7,54.7,62.9,57.1,51.3,91,70,43,30.01,29.88,13,3,13,0.00
2014-8-27,93.8,71.0,53.0,62.3,56.1,50.1,92,65,29,30.06,29.93,14,3,14,0.00
2014-8-28,90.8,69.3,52.8,64.9,57.4,50.4,93,69,41,30.07,29.89,12,3,12,0.00
2014-8-29,87.5,68.0,57.9,65.3,59.1,55.0,91,75,46,29.95,29.83,12,3,12,0.00
2014-8-30,95.2,73.0,54.1,62.4,56.7,49.6,93,62,22,29.90,29.77,13,3,13,0.00
2014-8-31,91.3,70.2,52.9,63.8,58.0,50.1,91,68,39,29.92,29.79,13,4,13,0.00
2014-9-1,99.5,73.1,52.1,63.2,56.4,48.6,93,63,21,29.85,29.70,12,3,12,0.00
2014-9-2,79.5,66.6,54.3,63.4,58.8,51.9,94,77,56,29.83,29.73,16,4,16,0.00
2014-9-3,85.3,66.8,56.5,63.7,57.7,53.6,91,75,47,29.82,29.66,12,3,12,0.00
2014-9-4,82.7,64.8,51.5,62.8,57.1,49.3,94,78,50,29.78,29.69,14,3,14,0.00
2014-9-5,81.9,65.5,53.5,62.5,57.0,50.9,93,76,50,29.90,29.78,15,3,15,0.00
2014-9-6,85.4,64.0,48.2,60.6,54.5,46.0,94,74,40,29.98,29.83,13,3,13,0.00
2014-9-7,84.9,63.8,48.6,58.6,52.4,45.8,94,71,35,29.90,29.75,14,3,14,0.00
2014-9-8,79.5,61.0,46.4,57.3,52.1,44.2,93,75,44,29.93,29.82,12,3,12,0.00
2014-9-9,84.5,60.8,48.2,61.1,53.3,45.9,93,79,44,30.01,29.88,13,2,13,0.00
2014-9-10,97.8,71.1,48.7,61.7,54.3,46.8,94,64,21,29.96,29.78,12,3,12,0.00
2014-9-11,98.0,72.9,52.2,59.6,55.2,49.2,92,61,22,29.90,29.77,10,3,10,0.00
2014-9-12,98.0,71.6,49.5,62.2,55.2,46.1,90,62,27,29.89,29.75,12,3,10,0.00
2014-9-13,93.0,70.1,53.4,64.5,57.7,49.9,91,68,37,29.85,29.72,13,3,13,0.00
2014-9-14,87.4,68.5,51.0,62.4,55.9,48.4,92,67,39,29.86,29.76,16,3,16,0.00
2014-9-15,88.3,67.4,51.6,59.2,53.8,48.7,91,66,34,29.91,29.81,13,3,13,0.00
2014-9-16,90.2,68.5,48.5,57.5,52.6,45.5,93,63,26,29.92,29.75,14,3,14,0.00
2014-9-17,83.4,68.1,52.1,63.5,57.4,49.8,93,72,39,29.82,29.70,17,4,17,0.00
2014-9-18,78.4,70.2,66.0,66.0,63.8,62.2,92,81,59,29.86,29.77,12,4,12,0.01
2014-9-21,83.5,71.6,58.8,61.7,58.7,55.2,88,66,43,30.00,29.91,10,3,10,0.01
2014-9-22,87.0,67.8,53.6,62.8,57.2,50.8,92,72,39,30.04,29.90,12,3,12,0.00
2014-9-23,90.7,66.4,46.8,62.7,56.1,44.5,94,73,36,30.00,29.86,12,2,12,0.00
2014-9-24,83.2,70.7,61.1,65.5,62.7,58.1,92,77,53,29.95,29.84,12,3,12,0.00
2014-9-25,77.1,65.6,57.3,60.2,57.1,54.1,93,76,48,30.00,29.87,13,3,13,0.27
2014-9-26,79.0,61.1,51.9,59.0,54.2,49.9,94,81,42,30.01,29.87,16,2,16,0.28
2014-9-27,82.3,63.5,51.5,61.1,55.0,49.8,94,77,42,29.93,29.77,13,2,13,0.01
2014-9-28,78.2,63.4,54.9,62.0,57.5,52.6,93,82,56,29.96,29.81,12,2,12,0.00
2014-9-29,77.8,61.7,50.4,62.4,55.8,48.6,94,83,57,30.03,29.92,10,2,10,0.00
2014-9-30,83.4,63.7,48.9,62.3,55.6,47.2,94,78,47,29.97,29.81,13,2,13,0.00
2014-10-1,89.5,72.4,53.0,55.2,39.2,26.9,90,36,11,29.93,29.83,20,7,20,0.00
2014-10-2,97.2,68.2,44.2,49.8,40.5,30.0,79,45,10,30.04,29.93,9,2,9,0.00
2014-10-3,100.3,72.5,51.5,47.3,41.6,34.2,66,39,11,30.09,29.97,8,2,8,0.00
2014-10-4,98.2,72.0,50.1,48.3,43.5,36.1,77,43,14,30.04,29.89,9,2,9,0.00
2014-10-5,98.7,71.2,48.7,52.5,46.4,41.0,77,47,18,29.96,29.83,10,2,10,0.00
2014-10-6,95.7,69.9,48.5,59.4,52.5,44.1,88,60,24,29.93,29.79,9,2,9,0.00
2014-10-7,87.3,64.9,45.5,59.2,53.4,43.6,94,71,37,29.93,29.80,12,2,12,0.00
2014-10-8,90.6,67.5,46.7,60.4,52.2,44.8,94,65,21,29.92,29.78,10,2,10,0.00
2014-10-9,78.3,61.3,45.8,60.7,52.6,42.8,92,75,54,29.97,29.87,14,3,14,0.00
2014-10-10,76.8,61.0,48.0,60.1,54.1,45.8,94,80,55,30.07,29.95,12,2,12,0.00
2014-10-11,85.3,61.8,46.1,59.9,53.1,44.3,95,76,42,30.06,29.92,12,2,12,0.00
2014-10-12,93.8,74.8,54.7,52.8,30.9,0.0,89,30,3,29.99,29.87,25,8,25,0.00
2014-10-13,90.0,65.0,45.4,57.5,41.8,30.6,90,50,13,29.98,29.87,15,3,15,0.00
2014-10-14,68.7,59.5,47.1,58.8,54.2,45.2,94,83,65,29.96,29.82,16,3,16,0.00
2014-10-15,71.8,62.8,52.6,60.1,56.1,49.4,93,80,58,30.04,29.84,16,2,10,0.21
2014-10-16,74.9,59.0,46.7,55.1,48.1,44.0,94,71,34,30.05,29.91,9,2,9,0.00
2014-10-17,75.3,59.6,45.2,57.5,50.7,42.4,93,75,49,29.99,29.92,10,2,10,0.00
2014-10-18,83.6,66.4,54.7,60.8,56.8,52.4,93,74,43,29.99,29.85,9,1,9,0.00
2014-10-19,82.3,63.5,50.0,62.5,55.9,48.1,94,79,46,29.93,29.82,12,2,12,0.00
2014-10-20,71.5,61.9,50.4,60.2,54.7,46.6,93,79,51,30.06,29.89,16,3,16,0.00
2014-10-21,75.0,57.8,44.8,51.6,46.7,41.5,94,71,34,30.13,29.98,12,2,12,0.00
2014-10-22,80.2,60.3,44.7,56.7,50.0,42.5,93,72,38,30.08,29.98,12,2,12,0.00
2014-10-23,75.0,62.6,53.8,59.7,55.4,50.3,91,79,58,30.07,29.96,7,1,7,0.00
2014-10-24,77.2,60.3,44.9,59.3,53.0,43.3,95,79,46,29.99,29.86,13,3,13,0.00
2014-10-25,72.2,62.7,54.8,61.9,56.8,51.8,93,82,58,30.14,29.87,20,4,20,0.47
2014-10-26,73.8,57.5,46.6,51.9,47.8,43.1,95,74,35,30.18,30.05,12,2,12,0.01
2014-10-27,74.9,55.6,41.7,50.7,46.0,39.8,95,74,33,30.09,29.99,6,1,6,0.00
2014-10-28,78.5,58.5,42.4,53.3,48.2,40.3,94,73,36,30.13,30.03,8,2,8,0.00
2014-10-29,82.9,62.5,46.5,55.9,51.5,44.3,94,72,38,30.13,29.97,10,1,10,0.00
2014-10-30,79.4,62.1,52.2,58.8,53.7,49.6,92,77,38,29.99,29.85,13,2,13,0.00
2014-10-31,60.7,57.9,52.0,57.6,55.2,50.0,93,91,86,29.89,29.71,10,2,10,0.21
2014-11-1,69.9,53.7,41.8,51.8,46.7,40.5,95,80,43,30.04,29.71,8,1,8,0.01
2014-11-2,72.2,54.1,42.6,49.7,42.9,38.8,94,71,31,30.18,30.04,17,2,17,0.00
2014-11-3,72.9,53.5,39.7,46.9,43.0,37.1,93,71,37,30.27,30.17,8,1,8,0.00
2014-11-4,75.5,55.2,40.4,51.0,45.7,38.4,94,74,39,30.33,30.21,8,1,8,0.00
2014-11-5,77.0,59.0,45.1,53.5,49.4,42.8,93,74,43,30.25,30.07,13,2,13,0.00
2014-11-6,81.7,60.3,47.6,57.3,51.1,45.4,93,75,38,30.23,30.13,8,1,8,0.00
2014-11-7,78.2,58.3,43.4,56.7,50.1,41.5,95,77,46,30.24,30.08,8,1,6,0.00
2014-11-8,82.8,61.1,46.4,56.0,51.2,44.5,94,74,36,30.14,30.00,9,2,9,0.00
2014-11-9,79.8,60.9,46.6,56.2,51.4,44.3,94,75,43,30.03,29.80,12,2,12,0.00
2014-11-10,78.3,58.1,44.5,58.3,51.4,42.9,95,81,45,29.85,29.76,12,2,12,0.00
2014-11-11,65.1,57.6,50.9,55.3,51.5,46.4,93,81,60,29.97,29.85,7,1,7,0.00
2014-11-12,67.7,56.0,44.1,53.2,48.5,41.9,93,77,52,30.03,29.94,8,1,8,0.00
2014-11-13,66.2,58.3,52.3,59.4,55.1,50.6,94,89,77,30.07,29.94,6,1,6,0.20
2014-11-14,69.0,54.5,46.3,56.6,49.8,44.6,95,85,56,30.11,30.02,8,1,8,0.01
2014-11-15,71.1,53.2,41.9,54.2,47.3,40.3,95,82,48,30.22,30.09,7,1,7,0.00
2014-11-16,67.9,54.2,41.4,44.9,33.4,21.3,93,51,18,30.28,30.20,13,3,13,0.00
2014-11-17,73.5,51.5,36.7,36.5,31.3,24.5,78,51,20,30.28,30.11,10,3,10,0.00
2014-11-18,69.3,53.9,40.1,41.8,36.1,29.9,74,53,32,30.16,30.05,12,2,8,0.00
2014-11-19,55.2,51.9,47.9,53.2,48.7,40.2,94,89,66,30.15,30.02,8,1,8,0.42
2014-11-20,57.7,52.9,48.2,55.1,51.1,46.8,95,94,89,30.14,29.97,7,1,7,0.31
2014-11-21,59.2,52.0,43.5,53.1,49.1,42.1,96,90,77,30.13,30.05,7,2,7,0.01
2014-11-22,69.0,58.8,47.0,62.9,52.3,43.8,94,81,47,30.27,30.02,17,5,17,0.33
2014-11-23,68.3,52.2,41.8,46.4,42.0,36.7,93,72,33,30.35,30.25,10,2,10,0.00
2014-11-24,71.6,50.3,37.6,48.7,42.3,35.9,95,78,36,30.44,30.33,8,1,8,0.00
2014-11-25,75.1,51.8,39.8,49.6,43.5,37.9,94,77,35,30.49,30.35,5,1,5,0.00
2014-11-26,74.3,52.5,38.5,50.2,44.2,36.4,95,77,38,30.35,30.21,6,1,6,0.00
2014-11-27,69.9,52.3,40.1,51.8,45.8,37.8,94,81,50,30.23,30.05,9,1,9,0.00
2014-11-28,63.9,49.7,34.4,54.7,45.8,32.8,95,87,68,30.08,29.85,12,2,12,0.18
2014-11-29,61.4,57.5,55.5,58.5,55.4,53.5,94,92,89,29.87,29.76,10,3,10,0.32
2014-11-30,59.1,54.8,52.4,55.0,52.1,50.7,94,91,80,30.05,29.75,10,2,10,0.76
2014-12-1,69.5,58.2,53.7,58.4,54.3,51.7,94,88,61,30.14,29.95,10,1,10,0.13
2014-12-2,60.7,55.7,53.9,56.5,53.5,52.2,94,92,81,29.97,29.71,17,3,17,1.61
2014-12-3,63.0,58.2,54.5,60.2,56.2,52.6,95,93,89,29.89,29.68,20,4,20,2.51
2014-12-4,65.8,57.3,51.7,61.4,55.2,50.0,95,93,84,30.03,29.88,8,1,8,0.31
2014-12-5,66.5,58.1,51.4,60.5,55.8,50.0,95,92,80,30.07,29.96,13,2,13,1.20
2014-12-6,65.0,56.7,50.7,59.9,54.3,49.3,95,92,78,30.24,30.06,10,1,10,0.34
2014-12-7,65.1,55.1,48.7,58.7,52.4,47.3,95,91,77,30.23,30.13,6,1,6,0.01
2014-12-8,65.8,58.5,53.1,59.2,55.4,51.4,95,90,74,30.18,30.12,8,1,8,0.00
2014-12-9,64.3,58.7,54.3,59.4,56.3,52.3,95,92,82,30.21,30.07,6,1,6,0.02
2014-12-10,59.6,56.8,54.7,55.9,54.5,52.6,94,92,86,30.07,29.68,14,3,14,0.65
2014-12-11,61.6,55.2,49.9,57.4,53.1,48.4,95,93,86,29.69,29.48,20,5,20,5.19
2014-12-12,54.0,49.6,45.6,51.8,47.9,44.3,95,94,88,30.09,29.65,5,1,5,0.39
2014-12-13,59.1,49.0,40.0,51.2,45.8,39.0,96,89,67,30.24,30.09,6,2,6,0.01
2014-12-14,57.0,49.2,43.9,49.0,45.9,42.5,95,89,72,30.17,30.01,10,2,10,0.14
2014-12-15,51.2,49.5,48.1,49.8,47.8,46.5,95,94,89,30.01,29.84,12,2,12,1.66
2014-12-16,59.7,52.2,47.7,53.3,49.5,46.1,95,91,75,29.96,29.81,14,3,14,1.05
2014-12-17,57.5,51.1,47.2,52.3,48.9,45.8,95,93,80,30.09,29.93,7,2,7,0.27
2014-12-18,57.6,52.1,49.5,53.8,49.9,47.8,95,92,85,30.20,30.08,6,1,6,0.10
2014-12-19,55.6,53.6,51.9,53.9,51.9,49.9,95,94,93,30.18,30.09,12,3,12,1.00
2014-12-20,58.3,54.8,51.1,55.5,52.9,49.7,95,93,89,30.25,30.14,8,2,8,0.01
2014-12-21,68.0,59.2,54.3,61.3,56.6,52.1,95,91,78,30.32,30.24,9,2,9,0.00
2014-12-22,68.4,55.5,51.0,60.6,53.2,49.3,95,92,76,30.31,30.18,9,1,9,0.01
2014-12-23,67.5,54.0,43.3,58.3,50.6,41.9,96,89,71,30.24,30.14,9,2,9,0.01
2014-12-24,58.4,49.8,42.4,55.6,45.6,37.8,95,86,63,30.14,29.93,18,4,18,0.02
2014-12-25,58.4,47.1,35.2,39.5,34.6,29.4,92,65,34,30.20,30.09,22,6,22,0.00
2014-12-26,59.2,51.1,38.1,33.8,30.5,28.3,75,46,34,30.30,30.15,22,8,22,0.00
2014-12-27,58.7,44.2,32.5,40.0,34.5,29.3,92,72,36,30.42,30.29,8,2,8,0.00
2014-12-28,60.4,44.6,35.1,45.2,38.9,33.3,94,82,55,30.41,30.25,7,1,7,0.00
2014-12-29,54.4,41.4,33.1,44.3,38.1,31.8,95,88,65,30.28,30.13,6,1,6,0.00
2014-12-30,52.5,47.1,36.9,38.2,24.0,16.3,93,42,28,30.34,30.15,36,14,36,0.00
2014-12-31,60.2,50.8,39.1,16.7,11.2,2.3,36,21,10,30.31,30.07,29,11,29,0.00
2015-1-1,55.2,43.6,30.2,34.7,27.6,7.8,92,58,16,30.19,30.06,16,3,16,0.00
2015-1-2,56.2,39.2,28.6,37.1,32.0,26.6,94,78,45,30.24,30.12,8,1,8,0.00